Airfield :
LOGIN :

Register | Disclaimer

   EN    FR    IT 

 










Legend :    VFR   Marginal VFR   IFR   Intensive IFR   Very Intensive IFR
Visi :
Ceiling :
>= 8 km
>= 3000ft
5 to 8 km
1000 to 3000 ft
1500m to 5 km
500 to 1000 ft
800 to 1500m
200 to 500 ft
< 800m
< 200 ft
Symbols :   Thunderstorms  Fog  Heavy snow  Heavy precipitations  Wind > 20 kt
SIGMETs :     Misc.  Thunderstorms  Icing  Turbulence  Mountain Waves  Volcanic Ashes







- Airport Elevation : 1 ft
- Download approach charts


EGCK - Caernarfon

CURRENT METAR :
  • 141950Z AUTO 15009G19KT 090V190 9999 NCD 05/M02 Q1016

EXPIRED METARs :
  • 141920Z AUTO 14010G21KT 060V190 9999 BKN040/// 05/M02 Q1017
  • 141850Z AUTO 16017KT 9999 OVC046/// 05/M02 Q1017
  • 141820Z AUTO 16015G28KT 110V180 9999 OVC048/// 05/M03 Q1016
  • 141750Z AUTO 14010G22KT 080V200 9999 OVC044/// 05/M03 Q1016
  • 141720Z AUTO 12015G25KT 090V150 9999 OVC044/// 05/M02 Q1017

TAF TAF EGCK
Valid from the 14 at 18:00 until the 15 at 03:00 UTC


141708Z 1418/1503 15009KT 9999 SCT035
PROB30
TEMPO 1418/1503 17015G25KT
No reported NOTAMs for that airfield.



MET'MAP, your aeronautical weather chart ! - Copyright ORBIFLY December 2007 - Disclaimer

ORBIFLY MET'MAP TEAM :

Programming & Development : Alexandra Zaïnal
Concept & Development : Baudouin d'Aumeries
Co-Development & Prog : Marc-Olivier Méhu
Technical & hardware support : Manuel Goepfert

Contact : metmap@orbifly.com




SOURCES & CREDITS :

   NOAA